sensor_id;sensor_type;location;lat;lon;timestamp;P1;durP1;ratioP1;P2;durP2;ratioP2
53309;SDS011;39197;53.200;5.792;2023-08-24T00:02:00;18.02;;;9.93;;
53309;SDS011;39197;53.200;5.792;2023-08-24T00:04:27;11.85;;;9.32;;
53309;SDS011;39197;53.200;5.792;2023-08-24T00:06:53;13.32;;;10.13;;
53309;SDS011;39197;53.200;5.792;2023-08-24T00:09:19;11.02;;;9.10;;
53309;SDS011;39197;53.200;5.792;2023-08-24T00:11:45;41.05;;;33.45;;
53309;SDS011;39197;53.200;5.792;2023-08-24T00:14:11;28.55;;;24.02;;
53309;SDS011;39197;53.200;5.792;2023-08-24T00:16:36;14.88;;;10.23;;
53309;SDS011;39197;53.200;5.792;2023-08-24T00:19:02;13.98;;;9.30;;
53309;SDS011;39197;53.200;5.792;2023-08-24T00:21:28;10.48;;;8.57;;
53309;SDS011;39197;53.200;5.792;2023-08-24T00:23:53;12.57;;;9.40;;
53309;SDS011;39197;53.200;5.792;2023-08-24T00:26:19;15.15;;;9.52;;
53309;SDS011;39197;53.200;5.792;2023-08-24T00:28:45;13.70;;;9.25;;
53309;SDS011;39197;53.200;5.792;2023-08-24T00:31:11;12.82;;;10.25;;
53309;SDS011;39197;53.200;5.792;2023-08-24T00:33:37;14.43;;;9.57;;
53309;SDS011;39197;53.200;5.792;2023-08-24T00:36:03;11.15;;;9.90;;
53309;SDS011;39197;53.200;5.792;2023-08-24T00:38:31;13.27;;;8.90;;
53309;SDS011;39197;53.200;5.792;2023-08-24T00:40:57;15.50;;;9.30;;
53309;SDS011;39197;53.200;5.792;2023-08-24T00:43:27;16.00;;;10.00;;
53309;SDS011;39197;53.200;5.792;2023-08-24T00:45:56;12.65;;;9.05;;
53309;SDS011;39197;53.200;5.792;2023-08-24T00:48:25;18.42;;;10.60;;
53309;SDS011;39197;53.200;5.792;2023-08-24T00:50:54;10.82;;;9.40;;
53309;SDS011;39197;53.200;5.792;2023-08-24T00:53:24;16.95;;;10.25;;
53309;SDS011;39197;53.200;5.792;2023-08-24T00:55:52;11.98;;;9.50;;
53309;SDS011;39197;53.200;5.792;2023-08-24T00:58:17;17.02;;;10.25;;
53309;SDS011;39197;53.200;5.792;2023-08-24T01:00:44;14.85;;;10.18;;
53309;SDS011;39197;53.200;5.792;2023-08-24T01:03:10;16.02;;;10.13;;
53309;SDS011;39197;53.200;5.792;2023-08-24T01:05:37;15.48;;;10.60;;
53309;SDS011;39197;53.200;5.792;2023-08-24T01:08:03;13.43;;;10.85;;
53309;SDS011;39197;53.200;5.792;2023-08-24T01:10:30;12.35;;;10.57;;
53309;SDS011;39197;53.200;5.792;2023-08-24T01:13:22;14.60;;;11.05;;
53309;SDS011;39197;53.200;5.792;2023-08-24T01:16:08;17.58;;;11.30;;
53309;SDS011;39197;53.200;5.792;2023-08-24T01:18:43;17.65;;;10.63;;
53309;SDS011;39197;53.200;5.792;2023-08-24T01:21:09;16.60;;;9.80;;
53309;SDS011;39197;53.200;5.792;2023-08-24T01:23:46;18.10;;;13.88;;
53309;SDS011;39197;53.200;5.792;2023-08-24T01:26:22;14.05;;;9.55;;
53309;SDS011;39197;53.200;5.792;2023-08-24T01:28:48;13.88;;;9.05;;
53309;SDS011;39197;53.200;5.792;2023-08-24T01:31:14;14.15;;;9.05;;
53309;SDS011;39197;53.200;5.792;2023-08-24T01:33:41;14.05;;;10.23;;
53309;SDS011;39197;53.200;5.792;2023-08-24T01:36:08;14.45;;;10.20;;
53309;SDS011;39197;53.200;5.792;2023-08-24T01:38:35;13.05;;;8.70;;
53309;SDS011;39197;53.200;5.792;2023-08-24T01:43:49;14.80;;;9.65;;
53309;SDS011;39197;53.200;5.792;2023-08-24T01:46:20;17.08;;;9.05;;
53309;SDS011;39197;53.200;5.792;2023-08-24T01:48:47;14.00;;;8.32;;
53309;SDS011;39197;53.200;5.792;2023-08-24T01:51:13;13.07;;;8.00;;
53309;SDS011;39197;53.200;5.792;2023-08-24T01:53:40;10.10;;;6.90;;
53309;SDS011;39197;53.200;5.792;2023-08-24T01:56:08;13.57;;;7.47;;
53309;SDS011;39197;53.200;5.792;2023-08-24T01:58:35;29.00;;;7.75;;
53309;SDS011;39197;53.200;5.792;2023-08-24T02:01:00;10.18;;;7.30;;
53309;SDS011;39197;53.200;5.792;2023-08-24T02:03:26;12.80;;;7.72;;
53309;SDS011;39197;53.200;5.792;2023-08-24T02:05:51;14.30;;;7.05;;
53309;SDS011;39197;53.200;5.792;2023-08-24T02:08:17;14.38;;;8.15;;
53309;SDS011;39197;53.200;5.792;2023-08-24T02:10:43;11.98;;;8.15;;
53309;SDS011;39197;53.200;5.792;2023-08-24T02:13:08;12.98;;;7.22;;
53309;SDS011;39197;53.200;5.792;2023-08-24T02:15:34;12.38;;;6.53;;
53309;SDS011;39197;53.200;5.792;2023-08-24T02:18:00;12.30;;;7.50;;
53309;SDS011;39197;53.200;5.792;2023-08-24T02:20:25;11.50;;;7.40;;
53309;SDS011;39197;53.200;5.792;2023-08-24T02:22:51;18.88;;;8.43;;
53309;SDS011;39197;53.200;5.792;2023-08-24T02:25:16;11.88;;;8.02;;
53309;SDS011;39197;53.200;5.792;2023-08-24T02:27:42;11.70;;;8.25;;
53309;SDS011;39197;53.200;5.792;2023-08-24T02:30:08;9.30;;;7.85;;
53309;SDS011;39197;53.200;5.792;2023-08-24T02:32:34;14.20;;;8.05;;
53309;SDS011;39197;53.200;5.792;2023-08-24T02:34:59;15.52;;;9.18;;
53309;SDS011;39197;53.200;5.792;2023-08-24T02:37:25;16.15;;;9.10;;
53309;SDS011;39197;53.200;5.792;2023-08-24T02:39:50;14.82;;;10.07;;
53309;SDS011;39197;53.200;5.792;2023-08-24T02:42:16;14.38;;;10.25;;
53309;SDS011;39197;53.200;5.792;2023-08-24T02:44:42;16.33;;;10.52;;
53309;SDS011;39197;53.200;5.792;2023-08-24T02:47:08;13.95;;;9.07;;
53309;SDS011;39197;53.200;5.792;2023-08-24T02:49:34;12.40;;;9.48;;
53309;SDS011;39197;53.200;5.792;2023-08-24T02:51:59;15.90;;;9.98;;
53309;SDS011;39197;53.200;5.792;2023-08-24T02:54:25;13.00;;;9.25;;
53309;SDS011;39197;53.200;5.792;2023-08-24T02:56:51;16.25;;;10.10;;
53309;SDS011;39197;53.200;5.792;2023-08-24T02:59:18;14.52;;;10.35;;
53309;SDS011;39197;53.200;5.792;2023-08-24T03:01:44;15.45;;;11.50;;
53309;SDS011;39197;53.200;5.792;2023-08-24T03:04:09;19.63;;;12.60;;
53309;SDS011;39197;53.200;5.792;2023-08-24T03:06:35;15.82;;;11.68;;
53309;SDS011;39197;53.200;5.792;2023-08-24T03:09:00;16.27;;;11.43;;
53309;SDS011;39197;53.200;5.792;2023-08-24T03:11:31;14.77;;;11.30;;
53309;SDS011;39197;53.200;5.792;2023-08-24T03:13:56;16.85;;;11.05;;
53309;SDS011;39197;53.200;5.792;2023-08-24T03:16:22;15.93;;;11.63;;
53309;SDS011;39197;53.200;5.792;2023-08-24T03:18:48;16.40;;;11.40;;
53309;SDS011;39197;53.200;5.792;2023-08-24T03:21:14;18.55;;;11.93;;
53309;SDS011;39197;53.200;5.792;2023-08-24T03:23:40;12.32;;;10.55;;
53309;SDS011;39197;53.200;5.792;2023-08-24T03:28:36;15.68;;;12.52;;
53309;SDS011;39197;53.200;5.792;2023-08-24T03:31:02;14.30;;;11.48;;
53309;SDS011;39197;53.200;5.792;2023-08-24T03:33:28;17.33;;;11.32;;
53309;SDS011;39197;53.200;5.792;2023-08-24T03:35:53;13.38;;;10.63;;
53309;SDS011;39197;53.200;5.792;2023-08-24T03:38:19;18.42;;;11.93;;
53309;SDS011;39197;53.200;5.792;2023-08-24T03:40:45;15.82;;;11.13;;
53309;SDS011;39197;53.200;5.792;2023-08-24T03:43:10;14.27;;;10.63;;
53309;SDS011;39197;53.200;5.792;2023-08-24T03:45:37;20.52;;;11.30;;
53309;SDS011;39197;53.200;5.792;2023-08-24T03:48:03;14.55;;;11.27;;
53309;SDS011;39197;53.200;5.792;2023-08-24T03:50:29;14.85;;;10.90;;
53309;SDS011;39197;53.200;5.792;2023-08-24T03:52:54;13.13;;;10.82;;
53309;SDS011;39197;53.200;5.792;2023-08-24T03:55:20;16.17;;;10.98;;
53309;SDS011;39197;53.200;5.792;2023-08-24T03:57:46;15.60;;;11.25;;
53309;SDS011;39197;53.200;5.792;2023-08-24T04:00:12;15.63;;;11.57;;
53309;SDS011;39197;53.200;5.792;2023-08-24T04:02:39;18.95;;;11.07;;
53309;SDS011;39197;53.200;5.792;2023-08-24T04:05:08;19.85;;;11.68;;
53309;SDS011;39197;53.200;5.792;2023-08-24T04:07:34;15.07;;;11.20;;
53309;SDS011;39197;53.200;5.792;2023-08-24T04:10:02;13.38;;;10.63;;
53309;SDS011;39197;53.200;5.792;2023-08-24T04:12:30;15.18;;;11.65;;
53309;SDS011;39197;53.200;5.792;2023-08-24T04:14:56;18.65;;;11.63;;
53309;SDS011;39197;53.200;5.792;2023-08-24T04:17:22;13.65;;;11.30;;
53309;SDS011;39197;53.200;5.792;2023-08-24T04:19:48;15.60;;;10.52;;
53309;SDS011;39197;53.200;5.792;2023-08-24T04:22:14;16.48;;;11.05;;
53309;SDS011;39197;53.200;5.792;2023-08-24T04:24:40;13.88;;;10.75;;
53309;SDS011;39197;53.200;5.792;2023-08-24T04:27:05;14.63;;;11.57;;
53309;SDS011;39197;53.200;5.792;2023-08-24T04:29:31;13.73;;;10.82;;
53309;SDS011;39197;53.200;5.792;2023-08-24T04:31:57;17.33;;;10.45;;
53309;SDS011;39197;53.200;5.792;2023-08-24T04:34:22;17.67;;;10.95;;
53309;SDS011;39197;53.200;5.792;2023-08-24T04:36:48;13.23;;;10.57;;
53309;SDS011;39197;53.200;5.792;2023-08-24T04:39:14;15.73;;;10.18;;
53309;SDS011;39197;53.200;5.792;2023-08-24T04:41:40;15.40;;;10.13;;
53309;SDS011;39197;53.200;5.792;2023-08-24T04:44:06;14.10;;;9.77;;
53309;SDS011;39197;53.200;5.792;2023-08-24T04:46:33;12.02;;;9.15;;
53309;SDS011;39197;53.200;5.792;2023-08-24T04:48:59;13.35;;;10.23;;
53309;SDS011;39197;53.200;5.792;2023-08-24T04:51:24;14.82;;;10.00;;
53309;SDS011;39197;53.200;5.792;2023-08-24T04:53:52;14.70;;;10.35;;
53309;SDS011;39197;53.200;5.792;2023-08-24T04:56:18;15.00;;;9.80;;
53309;SDS011;39197;53.200;5.792;2023-08-24T04:58:56;16.40;;;10.52;;
53309;SDS011;39197;53.200;5.792;2023-08-24T05:01:26;12.88;;;9.43;;
53309;SDS011;39197;53.200;5.792;2023-08-24T05:03:52;16.83;;;10.68;;
53309;SDS011;39197;53.200;5.792;2023-08-24T05:06:19;13.57;;;9.77;;
53309;SDS011;39197;53.200;5.792;2023-08-24T05:08:45;13.27;;;10.50;;
53309;SDS011;39197;53.200;5.792;2023-08-24T05:11:11;14.75;;;10.82;;
53309;SDS011;39197;53.200;5.792;2023-08-24T05:13:38;13.77;;;10.27;;
53309;SDS011;39197;53.200;5.792;2023-08-24T05:16:05;18.95;;;10.77;;
53309;SDS011;39197;53.200;5.792;2023-08-24T05:18:30;16.88;;;9.85;;
53309;SDS011;39197;53.200;5.792;2023-08-24T05:20:56;16.15;;;10.70;;
53309;SDS011;39197;53.200;5.792;2023-08-24T05:23:22;11.68;;;9.82;;
53309;SDS011;39197;53.200;5.792;2023-08-24T05:25:47;14.57;;;10.65;;
53309;SDS011;39197;53.200;5.792;2023-08-24T05:28:13;14.68;;;10.38;;
53309;SDS011;39197;53.200;5.792;2023-08-24T05:30:38;15.00;;;10.20;;
53309;SDS011;39197;53.200;5.792;2023-08-24T05:33:04;13.90;;;9.38;;
53309;SDS011;39197;53.200;5.792;2023-08-24T05:35:29;13.45;;;9.38;;
53309;SDS011;39197;53.200;5.792;2023-08-24T05:37:55;13.10;;;9.30;;
53309;SDS011;39197;53.200;5.792;2023-08-24T05:40:21;13.38;;;8.85;;
53309;SDS011;39197;53.200;5.792;2023-08-24T05:42:46;11.38;;;8.63;;
53309;SDS011;39197;53.200;5.792;2023-08-24T05:45:12;12.82;;;8.73;;
53309;SDS011;39197;53.200;5.792;2023-08-24T05:47:37;13.77;;;8.38;;
53309;SDS011;39197;53.200;5.792;2023-08-24T05:50:03;15.75;;;8.00;;
53309;SDS011;39197;53.200;5.792;2023-08-24T05:52:29;11.45;;;7.47;;
53309;SDS011;39197;53.200;5.792;2023-08-24T05:54:54;14.02;;;7.82;;
53309;SDS011;39197;53.200;5.792;2023-08-24T05:57:20;17.15;;;7.75;;
53309;SDS011;39197;53.200;5.792;2023-08-24T05:59:45;12.10;;;7.72;;
53309;SDS011;39197;53.200;5.792;2023-08-24T06:02:11;14.25;;;7.13;;
53309;SDS011;39197;53.200;5.792;2023-08-24T06:04:37;10.85;;;6.93;;
53309;SDS011;39197;53.200;5.792;2023-08-24T06:07:02;11.05;;;6.55;;
53309;SDS011;39197;53.200;5.792;2023-08-24T06:09:29;10.32;;;6.85;;
53309;SDS011;39197;53.200;5.792;2023-08-24T06:11:56;9.90;;;6.32;;
53309;SDS011;39197;53.200;5.792;2023-08-24T06:14:22;10.82;;;6.30;;
53309;SDS011;39197;53.200;5.792;2023-08-24T06:16:48;9.82;;;6.07;;
53309;SDS011;39197;53.200;5.792;2023-08-24T06:19:13;10.82;;;6.32;;
53309;SDS011;39197;53.200;5.792;2023-08-24T06:21:39;14.52;;;6.47;;
53309;SDS011;39197;53.200;5.792;2023-08-24T06:24:05;10.00;;;5.60;;
53309;SDS011;39197;53.200;5.792;2023-08-24T06:26:31;11.75;;;5.20;;
53309;SDS011;39197;53.200;5.792;2023-08-24T06:28:56;10.27;;;5.88;;
53309;SDS011;39197;53.200;5.792;2023-08-24T06:31:22;11.10;;;6.13;;
53309;SDS011;39197;53.200;5.792;2023-08-24T06:33:48;7.43;;;5.15;;
53309;SDS011;39197;53.200;5.792;2023-08-24T06:36:14;11.15;;;5.53;;
53309;SDS011;39197;53.200;5.792;2023-08-24T06:38:40;11.90;;;5.85;;
53309;SDS011;39197;53.200;5.792;2023-08-24T06:41:06;10.30;;;5.32;;
53309;SDS011;39197;53.200;5.792;2023-08-24T06:43:36;7.60;;;4.97;;
53309;SDS011;39197;53.200;5.792;2023-08-24T06:46:03;9.90;;;5.05;;
53309;SDS011;39197;53.200;5.792;2023-08-24T06:48:33;7.88;;;5.05;;
53309;SDS011;39197;53.200;5.792;2023-08-24T06:51:06;10.77;;;5.55;;
53309;SDS011;39197;53.200;5.792;2023-08-24T06:53:33;9.75;;;4.97;;
53309;SDS011;39197;53.200;5.792;2023-08-24T06:55:59;9.18;;;5.40;;
53309;SDS011;39197;53.200;5.792;2023-08-24T06:58:24;10.18;;;4.65;;
53309;SDS011;39197;53.200;5.792;2023-08-24T07:00:50;7.85;;;3.90;;
53309;SDS011;39197;53.200;5.792;2023-08-24T07:03:18;8.15;;;3.58;;
53309;SDS011;39197;53.200;5.792;2023-08-24T07:05:45;7.80;;;4.13;;
53309;SDS011;39197;53.200;5.792;2023-08-24T07:08:11;8.75;;;4.07;;
53309;SDS011;39197;53.200;5.792;2023-08-24T07:10:37;6.63;;;3.00;;
53309;SDS011;39197;53.200;5.792;2023-08-24T07:13:04;5.97;;;2.67;;
53309;SDS011;39197;53.200;5.792;2023-08-24T07:15:32;8.15;;;2.92;;
53309;SDS011;39197;53.200;5.792;2023-08-24T07:18:00;8.05;;;2.63;;
53309;SDS011;39197;53.200;5.792;2023-08-24T07:20:27;6.35;;;2.30;;
53309;SDS011;39197;53.200;5.792;2023-08-24T07:22:52;7.15;;;2.10;;
53309;SDS011;39197;53.200;5.792;2023-08-24T07:25:19;5.47;;;1.92;;
53309;SDS011;39197;53.200;5.792;2023-08-24T07:27:46;4.40;;;1.90;;
53309;SDS011;39197;53.200;5.792;2023-08-24T07:30:12;5.95;;;1.55;;
53309;SDS011;39197;53.200;5.792;2023-08-24T07:32:38;5.50;;;1.75;;
53309;SDS011;39197;53.200;5.792;2023-08-24T07:35:03;7.45;;;2.08;;
53309;SDS011;39197;53.200;5.792;2023-08-24T07:37:31;7.07;;;1.30;;
53309;SDS011;39197;53.200;5.792;2023-08-24T07:39:57;3.92;;;1.30;;
53309;SDS011;39197;53.200;5.792;2023-08-24T07:42:22;7.40;;;1.75;;
53309;SDS011;39197;53.200;5.792;2023-08-24T07:44:48;4.22;;;1.83;;
53309;SDS011;39197;53.200;5.792;2023-08-24T07:47:14;4.07;;;2.13;;
53309;SDS011;39197;53.200;5.792;2023-08-24T07:49:40;6.72;;;2.17;;
53309;SDS011;39197;53.200;5.792;2023-08-24T07:52:09;4.30;;;1.40;;
53309;SDS011;39197;53.200;5.792;2023-08-24T07:54:36;5.63;;;1.50;;
53309;SDS011;39197;53.200;5.792;2023-08-24T07:57:02;7.13;;;1.63;;
53309;SDS011;39197;53.200;5.792;2023-08-24T07:59:27;4.47;;;1.40;;
53309;SDS011;39197;53.200;5.792;2023-08-24T08:01:53;4.22;;;1.50;;
53309;SDS011;39197;53.200;5.792;2023-08-24T08:04:18;5.60;;;1.50;;
53309;SDS011;39197;53.200;5.792;2023-08-24T08:06:44;5.53;;;1.60;;
53309;SDS011;39197;53.200;5.792;2023-08-24T08:09:10;4.50;;;1.70;;
53309;SDS011;39197;53.200;5.792;2023-08-24T08:11:35;7.38;;;2.05;;
53309;SDS011;39197;53.200;5.792;2023-08-24T08:14:01;5.88;;;1.88;;
53309;SDS011;39197;53.200;5.792;2023-08-24T08:16:27;4.70;;;1.73;;
53309;SDS011;39197;53.200;5.792;2023-08-24T08:18:52;4.68;;;1.60;;
53309;SDS011;39197;53.200;5.792;2023-08-24T08:21:18;5.07;;;2.20;;
53309;SDS011;39197;53.200;5.792;2023-08-24T08:23:44;5.20;;;2.72;;
53309;SDS011;39197;53.200;5.792;2023-08-24T08:26:12;5.30;;;2.22;;
53309;SDS011;39197;53.200;5.792;2023-08-24T08:28:41;6.88;;;3.28;;
53309;SDS011;39197;53.200;5.792;2023-08-24T08:31:07;6.68;;;3.10;;
53309;SDS011;39197;53.200;5.792;2023-08-24T08:33:33;6.90;;;3.45;;
53309;SDS011;39197;53.200;5.792;2023-08-24T08:35:58;8.77;;;3.63;;
53309;SDS011;39197;53.200;5.792;2023-08-24T08:38:24;6.70;;;3.90;;
53309;SDS011;39197;53.200;5.792;2023-08-24T08:41:02;7.22;;;4.07;;
53309;SDS011;39197;53.200;5.792;2023-08-24T08:43:29;7.38;;;4.22;;
53309;SDS011;39197;53.200;5.792;2023-08-24T08:45:55;8.85;;;4.57;;
53309;SDS011;39197;53.200;5.792;2023-08-24T08:48:21;12.27;;;5.28;;
53309;SDS011;39197;53.200;5.792;2023-08-24T08:50:48;11.40;;;5.65;;
53309;SDS011;39197;53.200;5.792;2023-08-24T08:53:15;7.25;;;4.70;;
53309;SDS011;39197;53.200;5.792;2023-08-24T08:55:41;9.23;;;4.60;;
53309;SDS011;39197;53.200;5.792;2023-08-24T08:58:09;9.43;;;3.95;;
53309;SDS011;39197;53.200;5.792;2023-08-24T09:00:36;8.05;;;4.90;;
53309;SDS011;39197;53.200;5.792;2023-08-24T09:03:02;8.57;;;4.88;;
53309;SDS011;39197;53.200;5.792;2023-08-24T09:05:30;11.98;;;5.40;;
53309;SDS011;39197;53.200;5.792;2023-08-24T09:07:56;10.85;;;5.15;;
53309;SDS011;39197;53.200;5.792;2023-08-24T09:10:23;7.28;;;4.70;;
53309;SDS011;39197;53.200;5.792;2023-08-24T09:12:49;7.88;;;4.40;;
53309;SDS011;39197;53.200;5.792;2023-08-24T09:15:14;14.07;;;6.22;;
53309;SDS011;39197;53.200;5.792;2023-08-24T09:17:50;10.10;;;5.70;;
53309;SDS011;39197;53.200;5.792;2023-08-24T09:20:16;7.45;;;5.38;;
53309;SDS011;39197;53.200;5.792;2023-08-24T09:22:42;8.85;;;5.22;;
53309;SDS011;39197;53.200;5.792;2023-08-24T09:25:10;8.32;;;4.93;;
53309;SDS011;39197;53.200;5.792;2023-08-24T09:27:36;9.02;;;4.95;;
53309;SDS011;39197;53.200;5.792;2023-08-24T09:30:02;8.32;;;5.70;;
53309;SDS011;39197;53.200;5.792;2023-08-24T09:32:28;7.75;;;5.05;;
53309;SDS011;39197;53.200;5.792;2023-08-24T09:34:55;7.07;;;4.97;;
53309;SDS011;39197;53.200;5.792;2023-08-24T09:37:21;9.82;;;5.60;;
53309;SDS011;39197;53.200;5.792;2023-08-24T09:39:47;6.97;;;5.10;;
53309;SDS011;39197;53.200;5.792;2023-08-24T09:42:12;9.57;;;5.78;;
53309;SDS011;39197;53.200;5.792;2023-08-24T09:44:44;7.75;;;5.47;;
53309;SDS011;39197;53.200;5.792;2023-08-24T09:47:13;9.60;;;5.13;;
53309;SDS011;39197;53.200;5.792;2023-08-24T09:49:38;10.23;;;6.00;;
53309;SDS011;39197;53.200;5.792;2023-08-24T09:52:07;8.68;;;5.45;;
53309;SDS011;39197;53.200;5.792;2023-08-24T09:54:37;7.75;;;5.45;;
53309;SDS011;39197;53.200;5.792;2023-08-24T09:57:04;10.48;;;5.95;;
53309;SDS011;39197;53.200;5.792;2023-08-24T09:59:34;10.50;;;5.82;;
53309;SDS011;39197;53.200;5.792;2023-08-24T10:02:04;9.38;;;5.35;;
53309;SDS011;39197;53.200;5.792;2023-08-24T10:04:40;9.35;;;5.70;;
53309;SDS011;39197;53.200;5.792;2023-08-24T10:07:10;8.52;;;5.05;;
53309;SDS011;39197;53.200;5.792;2023-08-24T10:12:28;8.00;;;5.80;;
53309;SDS011;39197;53.200;5.792;2023-08-24T10:14:59;11.77;;;5.82;;
53309;SDS011;39197;53.200;5.792;2023-08-24T10:17:31;11.00;;;6.00;;
53309;SDS011;39197;53.200;5.792;2023-08-24T10:20:01;10.15;;;6.13;;
53309;SDS011;39197;53.200;5.792;2023-08-24T10:22:28;10.57;;;6.75;;
53309;SDS011;39197;53.200;5.792;2023-08-24T10:24:55;9.30;;;6.47;;
53309;SDS011;39197;53.200;5.792;2023-08-24T10:27:23;14.25;;;6.80;;
53309;SDS011;39197;53.200;5.792;2023-08-24T10:29:52;11.02;;;7.18;;
53309;SDS011;39197;53.200;5.792;2023-08-24T10:32:19;10.13;;;7.65;;
53309;SDS011;39197;53.200;5.792;2023-08-24T10:34:46;10.73;;;6.57;;
53309;SDS011;39197;53.200;5.792;2023-08-24T10:37:12;9.00;;;6.57;;
53309;SDS011;39197;53.200;5.792;2023-08-24T10:39:42;12.48;;;7.35;;
53309;SDS011;39197;53.200;5.792;2023-08-24T10:42:13;10.32;;;7.55;;
53309;SDS011;39197;53.200;5.792;2023-08-24T10:44:39;13.77;;;8.23;;
53309;SDS011;39197;53.200;5.792;2023-08-24T10:47:16;12.02;;;7.85;;
53309;SDS011;39197;53.200;5.792;2023-08-24T10:49:57;12.88;;;8.93;;
53309;SDS011;39197;53.200;5.792;2023-08-24T10:52:46;14.25;;;9.90;;
53309;SDS011;39197;53.200;5.792;2023-08-24T10:55:25;11.98;;;9.68;;
53309;SDS011;39197;53.200;5.792;2023-08-24T10:58:01;13.38;;;10.27;;
53309;SDS011;39197;53.200;5.792;2023-08-24T11:00:28;19.20;;;10.13;;
53309;SDS011;39197;53.200;5.792;2023-08-24T11:02:55;14.20;;;10.43;;
53309;SDS011;39197;53.200;5.792;2023-08-24T11:05:22;13.50;;;10.65;;
53309;SDS011;39197;53.200;5.792;2023-08-24T11:07:58;13.98;;;9.70;;
53309;SDS011;39197;53.200;5.792;2023-08-24T11:10:32;14.90;;;10.85;;
53309;SDS011;39197;53.200;5.792;2023-08-24T11:13:08;14.40;;;10.02;;
53309;SDS011;39197;53.200;5.792;2023-08-24T11:20:46;16.85;;;10.93;;
53309;SDS011;39197;53.200;5.792;2023-08-24T11:23:14;15.35;;;10.88;;
53309;SDS011;39197;53.200;5.792;2023-08-24T11:25:41;18.30;;;13.43;;
53309;SDS011;39197;53.200;5.792;2023-08-24T11:28:06;14.93;;;10.98;;
53309;SDS011;39197;53.200;5.792;2023-08-24T11:30:33;14.50;;;11.43;;
53309;SDS011;39197;53.200;5.792;2023-08-24T11:32:59;17.45;;;11.98;;
53309;SDS011;39197;53.200;5.792;2023-08-24T11:35:25;18.65;;;12.65;;
53309;SDS011;39197;53.200;5.792;2023-08-24T11:37:57;17.75;;;12.73;;
53309;SDS011;39197;53.200;5.792;2023-08-24T11:40:23;19.80;;;15.18;;
53309;SDS011;39197;53.200;5.792;2023-08-24T11:43:00;28.15;;;19.27;;
53309;SDS011;39197;53.200;5.792;2023-08-24T11:45:30;19.48;;;13.23;;
53309;SDS011;39197;53.200;5.792;2023-08-24T11:47:58;16.83;;;13.05;;
53309;SDS011;39197;53.200;5.792;2023-08-24T11:50:25;16.52;;;12.55;;
53309;SDS011;39197;53.200;5.792;2023-08-24T11:52:52;16.85;;;13.82;;
53309;SDS011;39197;53.200;5.792;2023-08-24T11:55:18;19.08;;;13.00;;
53309;SDS011;39197;53.200;5.792;2023-08-24T11:57:43;19.77;;;14.02;;
53309;SDS011;39197;53.200;5.792;2023-08-24T12:00:09;19.70;;;13.93;;
53309;SDS011;39197;53.200;5.792;2023-08-24T12:02:38;16.95;;;13.70;;
53309;SDS011;39197;53.200;5.792;2023-08-24T12:05:06;26.83;;;15.35;;
53309;SDS011;39197;53.200;5.792;2023-08-24T12:07:32;19.92;;;15.50;;
53309;SDS011;39197;53.200;5.792;2023-08-24T12:10:02;22.20;;;15.98;;
53309;SDS011;39197;53.200;5.792;2023-08-24T12:12:28;19.40;;;16.50;;
53309;SDS011;39197;53.200;5.792;2023-08-24T12:14:54;18.33;;;15.15;;
53309;SDS011;39197;53.200;5.792;2023-08-24T12:17:22;21.40;;;17.50;;
53309;SDS011;39197;53.200;5.792;2023-08-24T12:20:01;23.67;;;16.63;;
53309;SDS011;39197;53.200;5.792;2023-08-24T12:22:31;22.52;;;17.13;;
53309;SDS011;39197;53.200;5.792;2023-08-24T12:24:57;19.45;;;16.60;;
53309;SDS011;39197;53.200;5.792;2023-08-24T12:27:25;20.33;;;16.70;;
53309;SDS011;39197;53.200;5.792;2023-08-24T12:29:52;22.23;;;17.67;;
53309;SDS011;39197;53.200;5.792;2023-08-24T12:32:18;22.33;;;17.42;;
53309;SDS011;39197;53.200;5.792;2023-08-24T12:34:47;20.73;;;18.17;;
53309;SDS011;39197;53.200;5.792;2023-08-24T12:37:12;17.88;;;16.00;;
53309;SDS011;39197;53.200;5.792;2023-08-24T12:39:38;20.25;;;17.55;;
53309;SDS011;39197;53.200;5.792;2023-08-24T12:42:04;21.73;;;18.10;;
53309;SDS011;39197;53.200;5.792;2023-08-24T12:44:30;19.95;;;16.95;;
53309;SDS011;39197;53.200;5.792;2023-08-24T12:46:55;19.30;;;17.20;;
53309;SDS011;39197;53.200;5.792;2023-08-24T12:49:21;22.05;;;18.30;;
53309;SDS011;39197;53.200;5.792;2023-08-24T12:51:47;19.55;;;17.75;;
53309;SDS011;39197;53.200;5.792;2023-08-24T12:54:12;22.38;;;20.02;;
53309;SDS011;39197;53.200;5.792;2023-08-24T12:56:39;21.10;;;18.90;;
53309;SDS011;39197;53.200;5.792;2023-08-24T12:59:06;31.00;;;20.65;;
53309;SDS011;39197;53.200;5.792;2023-08-24T13:01:31;20.70;;;18.58;;
53309;SDS011;39197;53.200;5.792;2023-08-24T13:03:57;20.70;;;18.25;;
53309;SDS011;39197;53.200;5.792;2023-08-24T13:06:23;25.40;;;21.15;;
53309;SDS011;39197;53.200;5.792;2023-08-24T13:08:48;21.88;;;19.65;;
53309;SDS011;39197;53.200;5.792;2023-08-24T13:11:14;27.42;;;21.95;;
53309;SDS011;39197;53.200;5.792;2023-08-24T13:13:39;26.08;;;21.73;;
53309;SDS011;39197;53.200;5.792;2023-08-24T13:16:06;22.67;;;20.58;;
53309;SDS011;39197;53.200;5.792;2023-08-24T13:18:32;22.30;;;20.02;;
53309;SDS011;39197;53.200;5.792;2023-08-24T13:20:57;20.63;;;18.52;;
53309;SDS011;39197;53.200;5.792;2023-08-24T13:23:23;25.45;;;22.08;;
53309;SDS011;39197;53.200;5.792;2023-08-24T13:25:48;21.27;;;19.05;;
53309;SDS011;39197;53.200;5.792;2023-08-24T13:28:14;20.17;;;18.05;;
53309;SDS011;39197;53.200;5.792;2023-08-24T13:30:40;19.80;;;17.65;;
53309;SDS011;39197;53.200;5.792;2023-08-24T13:33:05;18.88;;;16.95;;
53309;SDS011;39197;53.200;5.792;2023-08-24T13:35:32;19.23;;;17.05;;
53309;SDS011;39197;53.200;5.792;2023-08-24T13:37:57;18.55;;;16.52;;
53309;SDS011;39197;53.200;5.792;2023-08-24T13:40:23;19.67;;;17.17;;
53309;SDS011;39197;53.200;5.792;2023-08-24T13:42:49;18.02;;;16.20;;
53309;SDS011;39197;53.200;5.792;2023-08-24T13:45:14;20.63;;;17.17;;
53309;SDS011;39197;53.200;5.792;2023-08-24T13:47:40;21.55;;;19.42;;
53309;SDS011;39197;53.200;5.792;2023-08-24T13:50:06;19.90;;;17.00;;
53309;SDS011;39197;53.200;5.792;2023-08-24T13:52:33;22.27;;;20.15;;
53309;SDS011;39197;53.200;5.792;2023-08-24T13:54:58;17.88;;;16.10;;
53309;SDS011;39197;53.200;5.792;2023-08-24T13:57:24;18.58;;;16.23;;
53309;SDS011;39197;53.200;5.792;2023-08-24T13:59:50;18.35;;;16.55;;
53309;SDS011;39197;53.200;5.792;2023-08-24T14:02:15;18.50;;;16.77;;
53309;SDS011;39197;53.200;5.792;2023-08-24T14:04:41;20.23;;;18.10;;
53309;SDS011;39197;53.200;5.792;2023-08-24T14:07:06;20.00;;;16.95;;
53309;SDS011;39197;53.200;5.792;2023-08-24T14:09:32;20.33;;;17.65;;
53309;SDS011;39197;53.200;5.792;2023-08-24T14:11:58;17.35;;;15.60;;
53309;SDS011;39197;53.200;5.792;2023-08-24T14:14:23;18.50;;;16.67;;
53309;SDS011;39197;53.200;5.792;2023-08-24T14:16:55;19.63;;;16.65;;
53309;SDS011;39197;53.200;5.792;2023-08-24T14:19:22;18.55;;;16.73;;
53309;SDS011;39197;53.200;5.792;2023-08-24T14:21:48;21.48;;;18.30;;
53309;SDS011;39197;53.200;5.792;2023-08-24T14:24:14;23.13;;;20.77;;
53309;SDS011;39197;53.200;5.792;2023-08-24T14:26:39;22.27;;;19.95;;
53309;SDS011;39197;53.200;5.792;2023-08-24T14:29:10;21.42;;;19.27;;
53309;SDS011;39197;53.200;5.792;2023-08-24T14:31:36;22.23;;;20.02;;
53309;SDS011;39197;53.200;5.792;2023-08-24T14:34:02;21.55;;;19.30;;
53309;SDS011;39197;53.200;5.792;2023-08-24T14:36:28;21.20;;;19.10;;
53309;SDS011;39197;53.200;5.792;2023-08-24T14:38:54;23.13;;;20.90;;
53309;SDS011;39197;53.200;5.792;2023-08-24T14:41:20;22.98;;;20.77;;
53309;SDS011;39197;53.200;5.792;2023-08-24T14:43:46;23.88;;;21.42;;